sensor_id;sensor_type;location;lat;lon;timestamp;P1;durP1;ratioP1;P2;durP2;ratioP2
30173;SDS011;16985;50.814;8.530;2023-06-10T00:01:46;8.57;;;6.28;;
30173;SDS011;16985;50.814;8.530;2023-06-10T00:04:15;9.77;;;7.30;;
30173;SDS011;16985;50.814;8.530;2023-06-10T00:06:44;10.20;;;7.28;;
30173;SDS011;16985;50.814;8.530;2023-06-10T00:09:14;10.45;;;7.57;;
30173;SDS011;16985;50.814;8.530;2023-06-10T00:11:41;9.90;;;6.93;;
30173;SDS011;16985;50.814;8.530;2023-06-10T00:14:09;13.55;;;7.57;;
30173;SDS011;16985;50.814;8.530;2023-06-10T00:16:35;10.73;;;7.65;;
30173;SDS011;16985;50.814;8.530;2023-06-10T00:19:02;9.45;;;7.85;;
30173;SDS011;16985;50.814;8.530;2023-06-10T00:21:32;9.18;;;7.60;;
30173;SDS011;16985;50.814;8.530;2023-06-10T00:24:05;11.65;;;7.40;;
30173;SDS011;16985;50.814;8.530;2023-06-10T00:26:37;10.40;;;7.43;;
30173;SDS011;16985;50.814;8.530;2023-06-10T00:29:04;11.40;;;7.43;;
30173;SDS011;16985;50.814;8.530;2023-06-10T00:31:31;11.40;;;8.95;;
30173;SDS011;16985;50.814;8.530;2023-06-10T00:33:57;12.75;;;8.00;;
30173;SDS011;16985;50.814;8.530;2023-06-10T00:36:24;9.30;;;7.53;;
30173;SDS011;16985;50.814;8.530;2023-06-10T00:38:49;11.15;;;8.13;;
30173;SDS011;16985;50.814;8.530;2023-06-10T00:41:15;9.10;;;7.70;;
30173;SDS011;16985;50.814;8.530;2023-06-10T00:43:43;9.77;;;7.65;;
30173;SDS011;16985;50.814;8.530;2023-06-10T00:46:09;13.80;;;7.65;;
30173;SDS011;16985;50.814;8.530;2023-06-10T00:48:37;9.23;;;7.32;;
30173;SDS011;16985;50.814;8.530;2023-06-10T00:51:04;10.20;;;7.15;;
30173;SDS011;16985;50.814;8.530;2023-06-10T00:53:37;8.68;;;7.15;;
30173;SDS011;16985;50.814;8.530;2023-06-10T00:56:06;8.55;;;7.43;;
30173;SDS011;16985;50.814;8.530;2023-06-10T00:58:34;10.50;;;7.47;;
30173;SDS011;16985;50.814;8.530;2023-06-10T01:01:01;8.55;;;7.65;;
30173;SDS011;16985;50.814;8.530;2023-06-10T01:03:31;9.13;;;7.53;;
30173;SDS011;16985;50.814;8.530;2023-06-10T01:06:06;11.35;;;7.93;;
30173;SDS011;16985;50.814;8.530;2023-06-10T01:12:26;9.02;;;6.93;;
30173;SDS011;16985;50.814;8.530;2023-06-10T01:14:44;7.60;;;6.63;;
30173;SDS011;16985;50.814;8.530;2023-06-10T01:17:11;12.93;;;7.30;;
30173;SDS011;16985;50.814;8.530;2023-06-10T01:19:37;8.93;;;7.43;;
30173;SDS011;16985;50.814;8.530;2023-06-10T01:22:03;9.68;;;7.50;;
30173;SDS011;16985;50.814;8.530;2023-06-10T01:24:33;9.55;;;7.25;;
30173;SDS011;16985;50.814;8.530;2023-06-10T01:27:05;11.77;;;8.10;;
30173;SDS011;16985;50.814;8.530;2023-06-10T01:29:43;10.90;;;7.72;;
30173;SDS011;16985;50.814;8.530;2023-06-10T01:32:22;11.68;;;8.93;;
30173;SDS011;16985;50.814;8.530;2023-06-10T01:35:01;10.07;;;8.18;;
30173;SDS011;16985;50.814;8.530;2023-06-10T01:37:27;12.77;;;8.05;;
30173;SDS011;16985;50.814;8.530;2023-06-10T01:39:56;9.15;;;8.10;;
30173;SDS011;16985;50.814;8.530;2023-06-10T01:42:25;9.10;;;7.75;;
30173;SDS011;16985;50.814;8.530;2023-06-10T01:44:51;8.88;;;7.80;;
30173;SDS011;16985;50.814;8.530;2023-06-10T01:47:17;9.18;;;7.07;;
30173;SDS011;16985;50.814;8.530;2023-06-10T01:49:46;10.00;;;7.63;;
30173;SDS011;16985;50.814;8.530;2023-06-10T01:52:12;10.23;;;7.97;;
30173;SDS011;16985;50.814;8.530;2023-06-10T01:54:38;12.90;;;8.35;;
30173;SDS011;16985;50.814;8.530;2023-06-10T01:57:04;10.18;;;7.28;;
30173;SDS011;16985;50.814;8.530;2023-06-10T01:59:31;10.65;;;7.32;;
30173;SDS011;16985;50.814;8.530;2023-06-10T02:01:57;11.52;;;8.77;;
30173;SDS011;16985;50.814;8.530;2023-06-10T02:04:22;11.25;;;8.32;;
30173;SDS011;16985;50.814;8.530;2023-06-10T02:06:48;9.50;;;8.30;;
30173;SDS011;16985;50.814;8.530;2023-06-10T02:09:15;10.80;;;8.57;;
30173;SDS011;16985;50.814;8.530;2023-06-10T02:11:43;11.00;;;8.68;;
30173;SDS011;16985;50.814;8.530;2023-06-10T02:14:09;10.25;;;7.97;;
30173;SDS011;16985;50.814;8.530;2023-06-10T02:16:37;9.27;;;7.63;;
30173;SDS011;16985;50.814;8.530;2023-06-10T02:19:04;9.93;;;8.23;;
30173;SDS011;16985;50.814;8.530;2023-06-10T02:21:31;11.27;;;8.20;;
30173;SDS011;16985;50.814;8.530;2023-06-10T02:23:59;8.68;;;7.20;;
30173;SDS011;16985;50.814;8.530;2023-06-10T02:26:25;8.73;;;7.13;;
30173;SDS011;16985;50.814;8.530;2023-06-10T02:28:51;9.77;;;7.93;;
30173;SDS011;16985;50.814;8.530;2023-06-10T02:31:18;12.50;;;8.27;;
30173;SDS011;16985;50.814;8.530;2023-06-10T02:33:46;9.90;;;7.60;;
30173;SDS011;16985;50.814;8.530;2023-06-10T02:36:13;10.13;;;7.90;;
30173;SDS011;16985;50.814;8.530;2023-06-10T02:38:41;11.23;;;7.70;;
30173;SDS011;16985;50.814;8.530;2023-06-10T02:41:07;10.32;;;8.05;;
30173;SDS011;16985;50.814;8.530;2023-06-10T02:43:34;11.10;;;8.32;;
30173;SDS011;16985;50.814;8.530;2023-06-10T02:45:59;11.77;;;8.55;;
30173;SDS011;16985;50.814;8.530;2023-06-10T02:48:26;11.77;;;8.65;;
30173;SDS011;16985;50.814;8.530;2023-06-10T02:53:31;9.90;;;8.30;;
30173;SDS011;16985;50.814;8.530;2023-06-10T02:56:03;10.13;;;7.13;;
30173;SDS011;16985;50.814;8.530;2023-06-10T02:58:29;10.57;;;8.25;;
30173;SDS011;16985;50.814;8.530;2023-06-10T03:00:56;8.98;;;8.00;;
30173;SDS011;16985;50.814;8.530;2023-06-10T03:03:23;10.88;;;8.60;;
30173;SDS011;16985;50.814;8.530;2023-06-10T03:05:58;8.93;;;7.35;;
30173;SDS011;16985;50.814;8.530;2023-06-10T03:08:25;11.95;;;9.00;;
30173;SDS011;16985;50.814;8.530;2023-06-10T03:10:51;12.30;;;7.78;;
30173;SDS011;16985;50.814;8.530;2023-06-10T03:13:18;9.05;;;7.25;;
30173;SDS011;16985;50.814;8.530;2023-06-10T03:15:44;9.25;;;7.75;;
30173;SDS011;16985;50.814;8.530;2023-06-10T03:18:14;8.50;;;7.05;;
30173;SDS011;16985;50.814;8.530;2023-06-10T03:20:40;12.07;;;8.23;;
30173;SDS011;16985;50.814;8.530;2023-06-10T03:25:34;9.00;;;7.97;;
30173;SDS011;16985;50.814;8.530;2023-06-10T03:28:01;13.75;;;8.23;;
30173;SDS011;16985;50.814;8.530;2023-06-10T03:30:27;9.40;;;8.13;;
30173;SDS011;16985;50.814;8.530;2023-06-10T03:32:53;10.23;;;7.28;;
30173;SDS011;16985;50.814;8.530;2023-06-10T03:35:23;11.98;;;7.90;;
30173;SDS011;16985;50.814;8.530;2023-06-10T03:37:48;11.35;;;8.38;;
30173;SDS011;16985;50.814;8.530;2023-06-10T03:40:14;9.20;;;7.40;;
30173;SDS011;16985;50.814;8.530;2023-06-10T03:42:43;12.57;;;8.65;;
30173;SDS011;16985;50.814;8.530;2023-06-10T03:45:11;10.45;;;7.78;;
30173;SDS011;16985;50.814;8.530;2023-06-10T03:47:37;13.23;;;8.40;;
30173;SDS011;16985;50.814;8.530;2023-06-10T03:50:06;12.73;;;9.45;;
30173;SDS011;16985;50.814;8.530;2023-06-10T03:52:34;11.57;;;8.77;;
30173;SDS011;16985;50.814;8.530;2023-06-10T03:55:01;10.88;;;8.65;;
30173;SDS011;16985;50.814;8.530;2023-06-10T03:57:29;8.95;;;7.75;;
30173;SDS011;16985;50.814;8.530;2023-06-10T03:59:55;16.70;;;8.50;;
30173;SDS011;16985;50.814;8.530;2023-06-10T04:02:22;10.75;;;7.88;;
30173;SDS011;16985;50.814;8.530;2023-06-10T04:04:48;11.85;;;8.00;;
30173;SDS011;16985;50.814;8.530;2023-06-10T04:07:14;10.13;;;8.32;;
30173;SDS011;16985;50.814;8.530;2023-06-10T04:09:40;11.13;;;8.23;;
30173;SDS011;16985;50.814;8.530;2023-06-10T04:12:06;11.15;;;8.05;;
30173;SDS011;16985;50.814;8.530;2023-06-10T04:14:34;12.18;;;8.07;;
30173;SDS011;16985;50.814;8.530;2023-06-10T04:17:03;11.63;;;8.80;;
30173;SDS011;16985;50.814;8.530;2023-06-10T04:19:32;10.15;;;8.65;;
30173;SDS011;16985;50.814;8.530;2023-06-10T04:22:00;12.27;;;8.13;;
30173;SDS011;16985;50.814;8.530;2023-06-10T04:24:27;10.93;;;8.13;;
30173;SDS011;16985;50.814;8.530;2023-06-10T04:26:54;10.77;;;8.77;;
30173;SDS011;16985;50.814;8.530;2023-06-10T04:29:20;10.75;;;8.77;;
30173;SDS011;16985;50.814;8.530;2023-06-10T04:31:45;11.13;;;8.18;;
30173;SDS011;16985;50.814;8.530;2023-06-10T04:34:12;14.07;;;9.07;;
30173;SDS011;16985;50.814;8.530;2023-06-10T04:36:39;11.68;;;8.93;;
30173;SDS011;16985;50.814;8.530;2023-06-10T04:39:05;10.82;;;8.63;;
30173;SDS011;16985;50.814;8.530;2023-06-10T04:41:31;9.00;;;8.10;;
30173;SDS011;16985;50.814;8.530;2023-06-10T04:43:57;11.68;;;8.60;;
30173;SDS011;16985;50.814;8.530;2023-06-10T04:46:23;9.77;;;8.05;;
30173;SDS011;16985;50.814;8.530;2023-06-10T04:48:50;11.15;;;8.43;;
30173;SDS011;16985;50.814;8.530;2023-06-10T04:51:15;11.70;;;9.30;;
30173;SDS011;16985;50.814;8.530;2023-06-10T04:53:41;11.15;;;9.10;;
30173;SDS011;16985;50.814;8.530;2023-06-10T04:56:07;10.48;;;8.45;;
30173;SDS011;16985;50.814;8.530;2023-06-10T04:58:34;13.10;;;8.18;;
30173;SDS011;16985;50.814;8.530;2023-06-10T05:00:59;9.43;;;8.43;;
30173;SDS011;16985;50.814;8.530;2023-06-10T05:03:27;12.32;;;9.13;;
30173;SDS011;16985;50.814;8.530;2023-06-10T05:05:52;11.60;;;8.75;;
30173;SDS011;16985;50.814;8.530;2023-06-10T05:08:18;10.40;;;9.20;;
30173;SDS011;16985;50.814;8.530;2023-06-10T05:10:45;11.82;;;9.70;;
30173;SDS011;16985;50.814;8.530;2023-06-10T05:13:11;9.63;;;8.15;;
30173;SDS011;16985;50.814;8.530;2023-06-10T05:15:36;11.55;;;8.40;;
30173;SDS011;16985;50.814;8.530;2023-06-10T05:18:06;12.63;;;8.98;;
30173;SDS011;16985;50.814;8.530;2023-06-10T05:20:31;11.38;;;9.07;;
30173;SDS011;16985;50.814;8.530;2023-06-10T05:22:57;13.18;;;9.10;;
30173;SDS011;16985;50.814;8.530;2023-06-10T05:25:24;10.02;;;8.10;;
30173;SDS011;16985;50.814;8.530;2023-06-10T05:27:51;10.68;;;8.32;;
30173;SDS011;16985;50.814;8.530;2023-06-10T05:30:17;12.05;;;8.23;;
30173;SDS011;16985;50.814;8.530;2023-06-10T05:32:43;11.00;;;8.98;;
30173;SDS011;16985;50.814;8.530;2023-06-10T05:35:09;9.63;;;8.30;;
30173;SDS011;16985;50.814;8.530;2023-06-10T05:37:35;13.70;;;9.55;;
30173;SDS011;16985;50.814;8.530;2023-06-10T05:40:02;11.00;;;8.85;;
30173;SDS011;16985;50.814;8.530;2023-06-10T05:42:29;11.67;;;9.47;;
30173;SDS011;16985;50.814;8.530;2023-06-10T05:44:55;11.00;;;9.13;;
30173;SDS011;16985;50.814;8.530;2023-06-10T05:47:21;10.38;;;9.25;;
30173;SDS011;16985;50.814;8.530;2023-06-10T05:49:46;12.35;;;9.05;;
30173;SDS011;16985;50.814;8.530;2023-06-10T05:52:15;12.60;;;8.93;;
30173;SDS011;16985;50.814;8.530;2023-06-10T05:54:40;13.07;;;9.60;;
30173;SDS011;16985;50.814;8.530;2023-06-10T05:57:06;13.95;;;9.73;;
30173;SDS011;16985;50.814;8.530;2023-06-10T05:59:32;12.07;;;9.38;;
30173;SDS011;16985;50.814;8.530;2023-06-10T06:01:58;13.00;;;10.60;;
30173;SDS011;16985;50.814;8.530;2023-06-10T06:04:24;11.10;;;8.30;;
30173;SDS011;16985;50.814;8.530;2023-06-10T06:06:49;12.50;;;8.52;;
30173;SDS011;16985;50.814;8.530;2023-06-10T06:09:15;12.77;;;7.78;;
30173;SDS011;16985;50.814;8.530;2023-06-10T06:11:44;11.90;;;8.02;;
30173;SDS011;16985;50.814;8.530;2023-06-10T06:14:10;9.55;;;7.40;;
30173;SDS011;16985;50.814;8.530;2023-06-10T06:16:38;9.18;;;7.07;;
30173;SDS011;16985;50.814;8.530;2023-06-10T06:19:04;11.05;;;7.32;;
30173;SDS011;16985;50.814;8.530;2023-06-10T06:21:29;10.60;;;6.78;;
30173;SDS011;16985;50.814;8.530;2023-06-10T06:23:55;10.48;;;7.05;;
30173;SDS011;16985;50.814;8.530;2023-06-10T06:26:23;11.90;;;6.88;;
30173;SDS011;16985;50.814;8.530;2023-06-10T06:28:49;10.60;;;6.88;;
30173;SDS011;16985;50.814;8.530;2023-06-10T06:31:15;10.32;;;5.97;;
30173;SDS011;16985;50.814;8.530;2023-06-10T06:33:40;9.50;;;6.95;;
30173;SDS011;16985;50.814;8.530;2023-06-10T06:36:06;9.77;;;6.55;;
30173;SDS011;16985;50.814;8.530;2023-06-10T06:38:32;13.07;;;7.28;;
30173;SDS011;16985;50.814;8.530;2023-06-10T06:40:58;7.63;;;5.95;;
30173;SDS011;16985;50.814;8.530;2023-06-10T06:43:28;10.52;;;6.57;;
30173;SDS011;16985;50.814;8.530;2023-06-10T06:46:14;13.02;;;6.97;;
30173;SDS011;16985;50.814;8.530;2023-06-10T06:48:40;12.40;;;6.80;;
30173;SDS011;16985;50.814;8.530;2023-06-10T06:51:06;8.68;;;6.70;;
30173;SDS011;16985;50.814;8.530;2023-06-10T06:53:32;11.27;;;6.47;;
30173;SDS011;16985;50.814;8.530;2023-06-10T06:56:00;10.10;;;5.82;;
30173;SDS011;16985;50.814;8.530;2023-06-10T06:58:26;8.32;;;5.55;;
30173;SDS011;16985;50.814;8.530;2023-06-10T07:00:52;9.90;;;5.90;;
30173;SDS011;16985;50.814;8.530;2023-06-10T07:03:19;11.20;;;7.20;;
30173;SDS011;16985;50.814;8.530;2023-06-10T07:05:45;10.15;;;5.95;;
30173;SDS011;16985;50.814;8.530;2023-06-10T07:08:11;8.10;;;6.40;;
30173;SDS011;16985;50.814;8.530;2023-06-10T07:10:37;7.28;;;5.85;;
30173;SDS011;16985;50.814;8.530;2023-06-10T07:13:03;7.10;;;5.18;;
30173;SDS011;16985;50.814;8.530;2023-06-10T07:15:28;7.60;;;5.60;;
30173;SDS011;16985;50.814;8.530;2023-06-10T07:20:22;12.48;;;6.50;;
30173;SDS011;16985;50.814;8.530;2023-06-10T07:22:48;9.98;;;5.20;;
30173;SDS011;16985;50.814;8.530;2023-06-10T07:25:14;10.82;;;6.15;;
30173;SDS011;16985;50.814;8.530;2023-06-10T07:27:40;7.35;;;5.45;;
30173;SDS011;16985;50.814;8.530;2023-06-10T07:30:06;8.27;;;6.00;;
30173;SDS011;16985;50.814;8.530;2023-06-10T07:32:33;8.48;;;5.68;;
30173;SDS011;16985;50.814;8.530;2023-06-10T07:34:59;8.10;;;5.50;;
30173;SDS011;16985;50.814;8.530;2023-06-10T07:37:25;9.70;;;5.85;;
30173;SDS011;16985;50.814;8.530;2023-06-10T07:39:51;12.07;;;5.18;;
30173;SDS011;16985;50.814;8.530;2023-06-10T07:42:17;13.15;;;5.80;;
30173;SDS011;16985;50.814;8.530;2023-06-10T07:44:43;9.90;;;5.60;;
30173;SDS011;16985;50.814;8.530;2023-06-10T07:47:09;12.40;;;5.72;;
30173;SDS011;16985;50.814;8.530;2023-06-10T07:49:34;9.57;;;5.43;;
30173;SDS011;16985;50.814;8.530;2023-06-10T07:52:00;9.18;;;5.72;;
30173;SDS011;16985;50.814;8.530;2023-06-10T07:54:26;12.52;;;7.68;;
30173;SDS011;16985;50.814;8.530;2023-06-10T07:56:54;10.95;;;6.28;;
30173;SDS011;16985;50.814;8.530;2023-06-10T07:59:20;9.20;;;6.15;;
30173;SDS011;16985;50.814;8.530;2023-06-10T08:01:46;10.82;;;6.38;;
30173;SDS011;16985;50.814;8.530;2023-06-10T08:06:40;10.82;;;5.45;;
30173;SDS011;16985;50.814;8.530;2023-06-10T08:09:06;11.30;;;5.90;;
30173;SDS011;16985;50.814;8.530;2023-06-10T08:11:31;11.30;;;6.05;;
30173;SDS011;16985;50.814;8.530;2023-06-10T08:14:01;6.05;;;4.95;;
30173;SDS011;16985;50.814;8.530;2023-06-10T08:16:27;8.68;;;5.85;;
30173;SDS011;16985;50.814;8.530;2023-06-10T08:18:53;7.82;;;4.90;;
30173;SDS011;16985;50.814;8.530;2023-06-10T08:21:18;9.13;;;5.13;;
30173;SDS011;16985;50.814;8.530;2023-06-10T08:23:44;9.52;;;5.97;;
30173;SDS011;16985;50.814;8.530;2023-06-10T08:26:10;10.52;;;4.93;;
30173;SDS011;16985;50.814;8.530;2023-06-10T08:28:36;9.85;;;5.68;;
30173;SDS011;16985;50.814;8.530;2023-06-10T08:31:02;11.25;;;5.72;;
30173;SDS011;16985;50.814;8.530;2023-06-10T08:33:28;8.27;;;4.60;;
30173;SDS011;16985;50.814;8.530;2023-06-10T08:35:54;8.38;;;5.22;;
30173;SDS011;16985;50.814;8.530;2023-06-10T08:38:19;12.48;;;5.07;;
30173;SDS011;16985;50.814;8.530;2023-06-10T08:40:45;8.13;;;5.10;;
30173;SDS011;16985;50.814;8.530;2023-06-10T08:43:21;10.25;;;4.95;;
30173;SDS011;16985;50.814;8.530;2023-06-10T08:46:09;8.98;;;6.00;;
30173;SDS011;16985;50.814;8.530;2023-06-10T08:48:37;12.52;;;5.18;;
30173;SDS011;16985;50.814;8.530;2023-06-10T08:51:10;6.95;;;4.72;;
30173;SDS011;16985;50.814;8.530;2023-06-10T08:53:38;6.03;;;4.40;;
30173;SDS011;16985;50.814;8.530;2023-06-10T08:56:13;16.20;;;6.70;;
30173;SDS011;16985;50.814;8.530;2023-06-10T08:58:40;10.55;;;6.03;;
30173;SDS011;16985;50.814;8.530;2023-06-10T09:01:08;6.82;;;5.20;;
30173;SDS011;16985;50.814;8.530;2023-06-10T09:03:36;10.95;;;4.97;;
30173;SDS011;16985;50.814;8.530;2023-06-10T09:08:30;10.30;;;4.95;;
30173;SDS011;16985;50.814;8.530;2023-06-10T09:10:56;8.48;;;5.18;;
30173;SDS011;16985;50.814;8.530;2023-06-10T09:13:22;7.63;;;5.28;;
30173;SDS011;16985;50.814;8.530;2023-06-10T09:15:48;6.30;;;4.80;;
30173;SDS011;16985;50.814;8.530;2023-06-10T09:18:16;9.98;;;4.90;;
30173;SDS011;16985;50.814;8.530;2023-06-10T09:20:42;10.32;;;5.47;;
30173;SDS011;16985;50.814;8.530;2023-06-10T09:23:11;7.85;;;4.95;;
30173;SDS011;16985;50.814;8.530;2023-06-10T09:25:44;7.75;;;4.80;;
30173;SDS011;16985;50.814;8.530;2023-06-10T09:28:13;6.13;;;5.40;;
30173;SDS011;16985;50.814;8.530;2023-06-10T09:30:40;6.68;;;5.38;;
30173;SDS011;16985;50.814;8.530;2023-06-10T09:33:10;9.98;;;5.20;;
30173;SDS011;16985;50.814;8.530;2023-06-10T09:35:44;8.63;;;4.72;;
30173;SDS011;16985;50.814;8.530;2023-06-10T09:38:15;10.20;;;4.60;;
30173;SDS011;16985;50.814;8.530;2023-06-10T09:40:56;6.90;;;4.63;;
30173;SDS011;16985;50.814;8.530;2023-06-10T09:43:43;8.32;;;4.97;;
30173;SDS011;16985;50.814;8.530;2023-06-10T09:46:15;9.48;;;5.45;;
30173;SDS011;16985;50.814;8.530;2023-06-10T09:48:43;6.57;;;4.53;;
30173;SDS011;16985;50.814;8.530;2023-06-10T09:51:13;5.65;;;4.28;;
30173;SDS011;16985;50.814;8.530;2023-06-10T09:53:42;6.07;;;4.50;;
30173;SDS011;16985;50.814;8.530;2023-06-10T09:56:07;6.43;;;4.70;;
30173;SDS011;16985;50.814;8.530;2023-06-10T09:58:40;7.60;;;4.97;;
30173;SDS011;16985;50.814;8.530;2023-06-10T10:01:11;8.68;;;4.47;;
30173;SDS011;16985;50.814;8.530;2023-06-10T10:03:46;6.03;;;4.00;;
30173;SDS011;16985;50.814;8.530;2023-06-10T10:06:15;8.45;;;4.32;;
30173;SDS011;16985;50.814;8.530;2023-06-10T10:08:44;10.80;;;4.20;;
30173;SDS011;16985;50.814;8.530;2023-06-10T10:11:18;8.57;;;4.75;;
30173;SDS011;16985;50.814;8.530;2023-06-10T10:13:48;9.27;;;4.57;;
30173;SDS011;16985;50.814;8.530;2023-06-10T10:16:19;9.68;;;4.00;;
30173;SDS011;16985;50.814;8.530;2023-06-10T10:18:57;9.65;;;4.40;;
30173;SDS011;16985;50.814;8.530;2023-06-10T10:21:31;7.25;;;4.25;;
30173;SDS011;16985;50.814;8.530;2023-06-10T10:24:07;6.85;;;4.15;;
30173;SDS011;16985;50.814;8.530;2023-06-10T10:26:47;5.20;;;3.95;;
30173;SDS011;16985;50.814;8.530;2023-06-10T10:29:24;10.43;;;4.00;;
30173;SDS011;16985;50.814;8.530;2023-06-10T10:31:59;8.00;;;4.40;;
30173;SDS011;16985;50.814;8.530;2023-06-10T10:34:35;10.57;;;4.32;;
30173;SDS011;16985;50.814;8.530;2023-06-10T10:37:17;6.22;;;4.22;;
30173;SDS011;16985;50.814;8.530;2023-06-10T10:39:44;5.07;;;3.58;;
30173;SDS011;16985;50.814;8.530;2023-06-10T10:42:13;8.55;;;5.03;;
30173;SDS011;16985;50.814;8.530;2023-06-10T10:44:41;7.22;;;3.55;;
30173;SDS011;16985;50.814;8.530;2023-06-10T10:47:10;8.25;;;4.10;;
30173;SDS011;16985;50.814;8.530;2023-06-10T10:49:39;8.07;;;4.70;;
30173;SDS011;16985;50.814;8.530;2023-06-10T10:52:10;9.88;;;4.32;;
30173;SDS011;16985;50.814;8.530;2023-06-10T10:54:37;7.30;;;4.38;;
30173;SDS011;16985;50.814;8.530;2023-06-10T10:57:18;7.18;;;4.35;;
30173;SDS011;16985;50.814;8.530;2023-06-10T11:02:33;9.73;;;4.70;;
30173;SDS011;16985;50.814;8.530;2023-06-10T11:05:00;15.55;;;4.43;;
30173;SDS011;16985;50.814;8.530;2023-06-10T11:07:29;8.13;;;4.27;;
30173;SDS011;16985;50.814;8.530;2023-06-10T11:10:05;5.50;;;4.28;;
30173;SDS011;16985;50.814;8.530;2023-06-10T11:15:10;5.80;;;4.10;;
30173;SDS011;16985;50.814;8.530;2023-06-10T11:18:06;5.95;;;3.90;;
30173;SDS011;16985;50.814;8.530;2023-06-10T11:31:23;9.80;;;4.75;;
30173;SDS011;16985;50.814;8.530;2023-06-10T11:34:00;7.63;;;3.83;;
30173;SDS011;16985;50.814;8.530;2023-06-10T11:36:30;7.45;;;3.80;;
30173;SDS011;16985;50.814;8.530;2023-06-10T11:39:02;5.57;;;3.85;;
30173;SDS011;16985;50.814;8.530;2023-06-10T11:41:31;9.50;;;4.38;;
30173;SDS011;16985;50.814;8.530;2023-06-10T11:44:02;4.40;;;3.88;;
30173;SDS011;16985;50.814;8.530;2023-06-10T11:46:39;10.48;;;3.75;;
30173;SDS011;16985;50.814;8.530;2023-06-10T11:49:07;5.50;;;3.92;;
30173;SDS011;16985;50.814;8.530;2023-06-10T11:51:34;4.78;;;3.58;;
30173;SDS011;16985;50.814;8.530;2023-06-10T11:54:04;4.72;;;3.65;;
30173;SDS011;16985;50.814;8.530;2023-06-10T11:56:33;8.82;;;4.03;;
30173;SDS011;16985;50.814;8.530;2023-06-10T11:59:01;5.07;;;4.00;;
30173;SDS011;16985;50.814;8.530;2023-06-10T12:01:34;6.07;;;3.90;;
30173;SDS011;16985;50.814;8.530;2023-06-10T12:04:08;6.95;;;4.60;;
30173;SDS011;16985;50.814;8.530;2023-06-10T12:09:19;5.57;;;4.15;;
30173;SDS011;16985;50.814;8.530;2023-06-10T12:12:05;7.57;;;4.20;;
30173;SDS011;16985;50.814;8.530;2023-06-10T12:18:01;6.72;;;3.85;;
30173;SDS011;16985;50.814;8.530;2023-06-10T12:20:36;6.68;;;4.20;;
30173;SDS011;16985;50.814;8.530;2023-06-10T12:23:09;7.50;;;3.85;;
30173;SDS011;16985;50.814;8.530;2023-06-10T12:25:48;5.05;;;3.95;;
30173;SDS011;16985;50.814;8.530;2023-06-10T12:28:23;13.43;;;3.95;;
30173;SDS011;16985;50.814;8.530;2023-06-10T12:31:08;9.20;;;4.75;;
30173;SDS011;16985;50.814;8.530;2023-06-10T12:33:49;6.22;;;4.10;;
30173;SDS011;16985;50.814;8.530;2023-06-10T12:36:49;10.50;;;4.10;;
30173;SDS011;16985;50.814;8.530;2023-06-10T12:39:30;6.65;;;4.20;;
30173;SDS011;16985;50.814;8.530;2023-06-10T12:42:05;7.78;;;3.80;;
30173;SDS011;16985;50.814;8.530;2023-06-10T12:44:55;4.72;;;3.88;;
30173;SDS011;16985;50.814;8.530;2023-06-10T12:47:49;12.60;;;4.47;;
30173;SDS011;16985;50.814;8.530;2023-06-10T12:51:19;5.75;;;3.90;;
30173;SDS011;16985;50.814;8.530;2023-06-10T12:53:46;7.03;;;3.95;;
30173;SDS011;16985;50.814;8.530;2023-06-10T12:56:22;4.72;;;3.28;;
30173;SDS011;16985;50.814;8.530;2023-06-10T12:59:36;4.90;;;3.78;;
30173;SDS011;16985;50.814;8.530;2023-06-10T13:02:20;7.25;;;3.67;;
30173;SDS011;16985;50.814;8.530;2023-06-10T13:04:52;7.57;;;3.60;;
30173;SDS011;16985;50.814;8.530;2023-06-10T13:07:28;5.03;;;4.07;;
30173;SDS011;16985;50.814;8.530;2023-06-10T13:10:10;7.53;;;3.67;;
30173;SDS011;16985;50.814;8.530;2023-06-10T13:12:43;7.45;;;4.32;;
30173;SDS011;16985;50.814;8.530;2023-06-10T13:15:19;6.50;;;3.67;;
30173;SDS011;16985;50.814;8.530;2023-06-10T13:17:50;4.20;;;3.80;;
30173;SDS011;16985;50.814;8.530;2023-06-10T13:20:49;8.68;;;4.07;;
30173;SDS011;16985;50.814;8.530;2023-06-10T13:23:29;9.18;;;3.97;;
30173;SDS011;16985;50.814;8.530;2023-06-10T13:26:43;5.73;;;3.50;;
30173;SDS011;16985;50.814;8.530;2023-06-10T13:29:24;7.38;;;3.90;;
30173;SDS011;16985;50.814;8.530;2023-06-10T13:31:59;5.70;;;3.70;;
30173;SDS011;16985;50.814;8.530;2023-06-10T13:34:52;5.00;;;3.75;;
30173;SDS011;16985;50.814;8.530;2023-06-10T13:37:33;5.57;;;3.45;;
30173;SDS011;16985;50.814;8.530;2023-06-10T13:40:08;7.43;;;3.83;;
30173;SDS011;16985;50.814;8.530;2023-06-10T13:42:38;8.00;;;4.32;;
30173;SDS011;16985;50.814;8.530;2023-06-10T13:51:28;4.07;;;3.67;;
30173;SDS011;16985;50.814;8.530;2023-06-10T13:53:58;5.15;;;3.67;;
30173;SDS011;16985;50.814;8.530;2023-06-10T13:56:57;7.20;;;3.80;;
30173;SDS011;16985;50.814;8.530;2023-06-10T13:59:48;4.35;;;3.20;;
30173;SDS011;16985;50.814;8.530;2023-06-10T14:02:28;6.78;;;3.33;;
30173;SDS011;16985;50.814;8.530;2023-06-10T14:05:26;4.30;;;3.70;;
30173;SDS011;16985;50.814;8.530;2023-06-10T14:08:10;6.82;;;4.35;;
30173;SDS011;16985;50.814;8.530;2023-06-10T14:11:01;5.70;;;3.97;;
30173;SDS011;16985;50.814;8.530;2023-06-10T14:13:37;7.85;;;3.72;;
30173;SDS011;16985;50.814;8.530;2023-06-10T14:16:30;5.22;;;3.80;;
30173;SDS011;16985;50.814;8.530;2023-06-10T14:19:21;11.35;;;4.53;;
30173;SDS011;16985;50.814;8.530;2023-06-10T14:21:59;5.70;;;3.95;;
30173;SDS011;16985;50.814;8.530;2023-06-10T14:24:43;3.97;;;3.40;;
30173;SDS011;16985;50.814;8.530;2023-06-10T14:27:23;6.03;;;4.43;;
30173;SDS011;16985;50.814;8.530;2023-06-10T14:29:59;7.30;;;3.70;;
30173;SDS011;16985;50.814;8.530;2023-06-10T14:32:48;7.15;;;3.88;;
30173;SDS011;16985;50.814;8.530;2023-06-10T14:35:44;8.73;;;3.80;;
30173;SDS011;16985;50.814;8.530;2023-06-10T14:38:16;8.35;;;4.25;;
30173;SDS011;16985;50.814;8.530;2023-06-10T14:41:01;8.15;;;4.00;;
30173;SDS011;16985;50.814;8.530;2023-06-10T14:43:42;5.72;;;3.97;;
30173;SDS011;16985;50.814;8.530;2023-06-10T14:46:18;5.03;;;4.03;;
30173;SDS011;16985;50.814;8.530;2023-06-10T14:49:18;6.75;;;3.40;;
30173;SDS011;16985;50.814;8.530;2023-06-10T14:52:02;5.03;;;3.25;;
30173;SDS011;16985;50.814;8.530;2023-06-10T14:54:43;6.68;;;3.85;;
30173;SDS011;16985;50.814;8.530;2023-06-10T14:57:46;7.50;;;3.92;;
30173;SDS011;16985;50.814;8.530;2023-06-10T15:00:41;12.73;;;3.15;;
30173;SDS011;16985;50.814;8.530;2023-06-10T15:03:11;6.00;;;3.45;;
30173;SDS011;16985;50.814;8.530;2023-06-10T15:05:51;4.43;;;3.20;;
30173;SDS011;16985;50.814;8.530;2023-06-10T15:08:21;5.75;;;3.90;;
30173;SDS011;16985;50.814;8.530;2023-06-10T15:11:16;5.40;;;3.33;;
30173;SDS011;16985;50.814;8.530;2023-06-10T15:13:49;4.45;;;3.30;;
30173;SDS011;16985;50.814;8.530;2023-06-10T15:16:40;3.92;;;2.95;;
30173;SDS011;16985;50.814;8.530;2023-06-10T15:19:10;3.78;;;3.05;;
30173;SDS011;16985;50.814;8.530;2023-06-10T15:21:49;4.97;;;2.95;;
30173;SDS011;16985;50.814;8.530;2023-06-10T15:24:36;6.25;;;3.63;;
30173;SDS011;16985;50.814;8.530;2023-06-10T15:27:22;6.50;;;3.40;;
30173;SDS011;16985;50.814;8.530;2023-06-10T15:30:01;6.47;;;3.40;;
30173;SDS011;16985;50.814;8.530;2023-06-10T15:32:34;3.53;;;3.08;;
30173;SDS011;16985;50.814;8.530;2023-06-10T15:35:10;4.65;;;3.35;;
30173;SDS011;16985;50.814;8.530;2023-06-10T15:37:48;4.18;;;3.13;;
30173;SDS011;16985;50.814;8.530;2023-06-10T15:40:15;4.78;;;3.30;;
30173;SDS011;16985;50.814;8.530;2023-06-10T15:42:55;5.45;;;3.63;;
30173;SDS011;16985;50.814;8.530;2023-06-10T15:45:22;3.42;;;2.58;;
30173;SDS011;16985;50.814;8.530;2023-06-10T15:48:04;3.95;;;3.40;;
30173;SDS011;16985;50.814;8.530;2023-06-10T15:50:33;5.88;;;3.15;;
30173;SDS011;16985;50.814;8.530;2023-06-10T15:53:08;5.88;;;3.83;;